Flight Track Log - Related Links

Times and Time Zones

All times are in EDT time to prevent confusion due to time zone crossing. See the N2299W flight status page for this flight to view local times or setup timezone preferences in your user account.

Time Position Orientation Groundspeed Altitude Reporting Facility
EDT Latitude Longitude Course Direction KTS MPH feet Rate Location/Type
Sun 05:01:38 PM 29.4725 -81.1964 291° West 72 83 400  Level Jacksonville Center
Sun 05:02:02 PM 29.4764 -81.1894 57° Northeast 72 83 700 565 Climbing Jacksonville Center
Sun 05:03:03 PM 29.4867 -81.1678 61° Northeast 76 87 1,200 545 Climbing Jacksonville Center
Sun 05:04:03 PM 29.5053 -81.1603 19° North 80 92 1,800 545 Climbing Jacksonville Center
Sun 05:05:04 PM 29.5139 -81.1839 293° West 93 107 2,300 492 Climbing Jacksonville Center
Sun 05:06:05 PM 29.5247 -81.2100 295° West 94 108 2,800 446 Climbing Jacksonville Center
Sun 05:07:00 PM 29.5628 -81.3719 291° West  Level FlightAware Approximate
Sun 05:07:05 PM 29.5375 -81.2361 299° West 93 107 3,200  Level Jacksonville Center
Sun 05:08:06 PM 29.5506 -81.2644 298° West 95 109 3,700 446 Climbing Jacksonville Center
Sun 05:09:06 PM 29.5633 -81.2928 297° West 94 108 4,100 496 Climbing Jacksonville Center
Sun 05:10:07 PM 29.5742 -81.3167 298° West 91 105 4,700 443 Climbing Jacksonville Center
Sun 05:11:08 PM 29.5892 -81.3450 301° West 87 100 5,000 149 Climbing Jacksonville Center
Sun 05:12:08 PM 29.6000 -81.3758 292° West 116 133 5,000  Level Jacksonville Center
Sun 05:13:09 PM 29.6169 -81.4089 301° West 122 140 5,000 55 Level Jacksonville Center
Sun 05:13:58 PM 29.6319 -81.4350 303° West 121 139 5,100 109 Climbing Jacksonville Center
Sun 05:14:59 PM 29.6469 -81.4708 296° West 130 150 5,200  Climbing Jacksonville Center
Sun 05:16:00 PM 29.6661 -81.5039 304° West 124 143 5,100 -94 Descending Jacksonville Center
Sun 05:17:07 PM 29.6936 -81.5369 314° West 127 146 5,000 -45 Descending Jacksonville Center
Sun 05:18:14 PM 29.7208 -81.5653 318° Northwest 121 139 5,000 -188 Level Jacksonville Center
Sun 05:19:15 PM 29.7483 -81.5961 316° Northwest 124 143 4,600 -344 Descending Jacksonville Center
Sun 05:20:16 PM 29.7736 -81.6219 318° Northwest 122 140 4,300 -298 Descending Jacksonville Center
Sun 05:21:16 PM 29.8011 -81.6456 323° Northwest 116 133 4,000 -157 Descending Jacksonville Center
Sun 05:22:11 PM 29.8244 -81.6692 319° Northwest 117 135 4,000  Level Jacksonville Center
Sun 05:23:18 PM 29.8392 -81.7050 295° West 125 144 4,000 47 Level Jacksonville Center
Sun 05:24:19 PM 29.8606 -81.7406 305° West 125 144 4,100  Climbing Jacksonville Center
Sun 05:25:14 PM 29.8775 -81.7714 302° West 126 145 4,000 -246 Descending Jacksonville Center
Sun 05:26:21 PM 29.8967 -81.8097 300° West 130 150 3,600 -403 Descending Jacksonville Center
Sun 05:27:28 PM 29.9200 -81.8550 301° West 141 162 3,100 -281 Descending Jacksonville Center
Sun 05:28:29 PM 29.9453 -81.8811 318° Northwest 107 123 3,000 -49 Descending Jacksonville Center
Sun 05:29:30 PM 29.9722 -81.8808 North 100 115 3,000 -52 Level Jacksonville Center
Sun 05:30:25 PM 29.9972 -81.8781 North 99 114 2,900 -155 Descending Jacksonville Center
Sun 05:31:26 PM 30.0267 -81.8803 356° North 107 123 2,700 -273 Descending Jacksonville Center
Sun 05:32:15 PM 30.0475 -81.8750 12° North 98 113 2,400 -425 Descending Jacksonville Center
Sun 05:33:33 PM 30.0850 -81.8772 357° North 101 116 1,800 -302 Descending Jacksonville Center
Sun 05:34:34 PM 30.1122 -81.8769 North 92 106 1,700 -259 Descending Jacksonville Center
Sun 05:35:29 PM 30.1372 -81.8789 356° North 101 116 1,300 -466 Descending Jacksonville Center
Sun 05:36:30 PM 30.1664 -81.8786 360° North 107 123 800 -344 Descending Jacksonville Center
Sun 05:37:31 PM 30.1875 -81.8953 326° Northwest 106 122 600 -98 Descending Jacksonville Center
Sun 05:38:32 PM 30.2042 -81.9094 324° Northwest 85 98 600  Level Jacksonville Center
Sun 05:40:00 PM 30.2188 -81.8772 North  Level Estimated
Sun 05:47:00 PM 30.2188 -81.8772 North  Level Estimated

Login

Don't have an account? Register now (free) for customized features, flight alerts, and more!